createdAt,value
2019-05-25T00:01:13.586Z,79.62
2019-05-25T00:03:43.125Z,77.68
2019-05-25T00:06:12.713Z,75.92
2019-05-25T00:08:42.401Z,75.23
2019-05-25T00:11:12.168Z,75.79
2019-05-25T00:13:41.769Z,78.02
2019-05-25T00:16:11.291Z,79.19
2019-05-25T00:18:40.839Z,79.82
2019-05-25T00:21:13.642Z,77.60
2019-05-25T00:23:41.807Z,78.37
2019-05-25T00:26:11.350Z,79.15
2019-05-25T00:28:40.922Z,77.61
2019-05-25T00:31:10.527Z,77.97
2019-05-25T00:33:40.197Z,78.37
2019-05-25T00:36:09.770Z,79.91
2019-05-25T00:38:39.310Z,79.86
2019-05-25T00:41:08.920Z,77.94
2019-05-25T00:43:38.591Z,79.50
2019-05-25T00:46:08.133Z,78.15
2019-05-25T00:48:37.670Z,79.20
2019-05-25T00:51:07.284Z,78.19
2019-05-25T00:53:36.967Z,78.40
2019-05-25T00:56:06.606Z,77.76
2019-05-25T00:58:36.160Z,76.11
2019-05-25T01:01:06.421Z,78.27
2019-05-25T01:03:36.065Z,79.65
2019-05-25T01:06:06.630Z,79.19
2019-05-25T01:08:36.170Z,76.69
2019-05-25T01:11:05.939Z,78.44
2019-05-25T01:13:35.525Z,78.14
2019-05-25T01:16:05.381Z,78.17
2019-05-25T01:18:34.926Z,79.33
2019-05-25T01:21:04.633Z,79.60
2019-05-25T01:23:34.164Z,81.14
2019-05-25T01:26:03.771Z,80.03
2019-05-25T01:28:33.568Z,80.36
2019-05-25T01:31:03.181Z,79.19
2019-05-25T01:33:32.725Z,78.57
2019-05-25T01:36:02.311Z,79.35
2019-05-25T01:38:31.916Z,79.14
2019-05-25T01:41:01.522Z,79.83
2019-05-25T01:43:31.219Z,78.14
2019-05-25T01:46:00.790Z,78.45
2019-05-25T01:48:30.332Z,79.63
2019-05-25T01:50:59.982Z,78.93
2019-05-25T01:53:29.591Z,77.47
2019-05-25T01:55:59.124Z,77.71
2019-05-25T01:58:28.707Z,78.29
2019-05-25T02:00:58.301Z,78.92
2019-05-25T02:03:27.839Z,79.62
2019-05-25T02:05:57.508Z,79.64
2019-05-25T02:08:28.033Z,80.73
2019-05-25T02:10:57.573Z,81.51
2019-05-25T02:13:27.278Z,80.58
2019-05-25T02:15:56.868Z,78.96
2019-05-25T02:18:26.412Z,77.74
2019-05-25T02:20:56.054Z,77.57
2019-05-25T02:23:25.736Z,80.16
2019-05-25T02:25:55.272Z,79.14
2019-05-25T02:28:24.857Z,80.86
2019-05-25T02:30:54.391Z,80.62
2019-05-25T02:33:23.995Z,80.89
2019-05-25T02:35:53.884Z,81.21
2019-05-25T02:38:23.428Z,81.00
2019-05-25T02:40:53.043Z,80.56
2019-05-25T02:43:22.758Z,79.31
2019-05-25T02:45:52.667Z,77.52
2019-05-25T02:48:22.364Z,78.62
2019-05-25T02:50:53.078Z,79.22
2019-05-25T02:53:22.846Z,79.14
2019-05-25T02:55:52.558Z,81.10
2019-05-25T02:58:22.204Z,80.47
2019-05-25T03:00:51.985Z,80.05
2019-05-25T03:03:21.755Z,80.09
2019-05-25T03:05:51.876Z,80.72
2019-05-25T03:08:21.477Z,79.82
2019-05-25T03:10:51.180Z,79.01
2019-05-25T03:13:21.350Z,79.62
2019-05-25T03:15:50.882Z,79.37
2019-05-25T03:18:20.548Z,80.15
2019-05-25T03:20:50.108Z,81.11
2019-05-25T03:23:19.661Z,80.05
2019-05-25T03:25:50.329Z,79.39
2019-05-25T03:28:20.066Z,79.79
2019-05-25T03:30:49.671Z,79.92
2019-05-25T03:33:19.264Z,79.32
2019-05-25T03:35:49.066Z,78.18
2019-05-25T03:38:18.681Z,77.03
2019-05-25T03:40:48.204Z,77.72
2019-05-25T03:43:17.852Z,77.11
2019-05-25T03:45:47.537Z,78.09
2019-05-25T03:48:17.132Z,79.28
2019-05-25T03:50:46.774Z,77.93
2019-05-25T03:53:16.316Z,79.58
2019-05-25T03:55:45.989Z,79.09
2019-05-25T03:58:15.637Z,79.96
2019-05-25T04:00:45.173Z,79.80
2019-05-25T04:03:14.817Z,78.87
2019-05-25T04:05:44.395Z,79.53
2019-05-25T04:08:13.921Z,78.49
2019-05-25T04:10:43.534Z,80.35
2019-05-25T04:13:13.090Z,80.20
2019-05-25T04:15:42.935Z,79.46
2019-05-25T04:18:12.448Z,80.24
2019-05-25T04:20:42.087Z,79.96
2019-05-25T04:23:11.635Z,80.60
2019-05-25T04:25:41.827Z,79.77
2019-05-25T04:28:11.474Z,79.80
2019-05-25T04:30:41.087Z,79.62
2019-05-25T04:33:10.796Z,81.02
2019-05-25T04:35:40.583Z,80.37
2019-05-25T04:38:10.143Z,81.22
2019-05-25T04:40:39.764Z,81.68
2019-05-25T04:43:09.436Z,81.69
2019-05-25T04:45:39.230Z,81.43
2019-05-25T04:48:08.924Z,81.75
2019-05-25T04:50:38.628Z,81.82
2019-05-25T04:53:08.239Z,81.27
2019-05-25T04:55:37.919Z,81.03
2019-05-25T04:58:07.506Z,80.62
2019-05-25T05:00:37.045Z,81.33
2019-05-25T05:03:07.401Z,81.45
2019-05-25T05:05:37.654Z,80.53
2019-05-25T05:08:07.314Z,79.97
2019-05-25T05:10:36.920Z,80.22
2019-05-25T05:13:06.587Z,80.04
2019-05-25T05:15:36.127Z,79.39
2019-05-25T05:18:05.669Z,78.48
2019-05-25T05:20:35.265Z,77.49
2019-05-25T05:23:04.872Z,77.71
2019-05-25T05:25:34.494Z,77.01
2019-05-25T05:28:04.129Z,75.71
2019-05-25T05:30:35.181Z,73.86
2019-05-25T05:33:05.332Z,73.00
2019-05-25T05:35:38.711Z,72.58
2019-05-25T05:38:07.505Z,70.95
2019-05-25T05:40:37.825Z,71.41
2019-05-25T05:43:12.072Z,70.83
2019-05-25T05:45:47.709Z,69.00
2019-05-25T05:48:19.276Z,70.34
2019-05-25T05:50:50.424Z,68.42
2019-05-25T05:53:21.207Z,68.05
2019-05-25T05:55:50.844Z,67.90
2019-05-25T05:58:20.743Z,67.69
2019-05-25T06:00:50.425Z,66.25
2019-05-25T06:03:20.066Z,66.60
2019-05-25T06:05:50.460Z,64.86
2019-05-25T06:08:20.007Z,66.43
2019-05-25T06:10:49.669Z,65.26
2019-05-25T06:13:19.441Z,64.48
2019-05-25T06:15:49.048Z,62.62
2019-05-25T06:18:20.176Z,64.23
2019-05-25T06:20:49.706Z,61.41
2019-05-25T06:23:19.312Z,63.29
2019-05-25T06:25:48.888Z,60.54
2019-05-25T06:28:22.284Z,64.38
2019-05-25T06:30:50.048Z,62.75
2019-05-25T06:33:19.636Z,58.23
2019-05-25T06:35:49.228Z,60.15
2019-05-25T06:38:18.995Z,58.34
2019-05-25T06:40:48.773Z,57.72
2019-05-25T06:43:18.429Z,59.80
2019-05-25T06:45:48.020Z,57.08
2019-05-25T06:48:17.692Z,59.00
2019-05-25T06:50:47.312Z,58.61
2019-05-25T06:53:17.009Z,55.12
2019-05-25T06:55:48.821Z,55.75
2019-05-25T06:58:18.870Z,58.03
2019-05-25T07:00:49.374Z,57.17
2019-05-25T07:03:19.483Z,53.65
2019-05-25T07:05:49.260Z,52.96
2019-05-25T07:08:18.975Z,52.93
2019-05-25T07:10:49.059Z,53.57
2019-05-25T07:13:18.759Z,52.57
2019-05-25T07:15:49.527Z,49.70
2019-05-25T07:18:19.245Z,50.65
2019-05-25T07:20:48.936Z,49.12
2019-05-25T07:23:20.515Z,49.77
2019-05-25T07:25:50.207Z,49.63
2019-05-25T07:28:19.882Z,49.03
2019-05-25T07:30:49.564Z,49.46
2019-05-25T07:33:19.327Z,51.24
2019-05-25T07:35:48.869Z,48.39
2019-05-25T07:38:18.414Z,47.61
2019-05-25T07:40:48.258Z,48.06
2019-05-25T07:43:17.850Z,48.26
2019-05-25T07:45:47.385Z,47.16
2019-05-25T07:48:16.955Z,45.36
2019-05-25T07:50:46.506Z,47.01
2019-05-25T07:53:16.094Z,44.89
2019-05-25T07:55:46.239Z,46.87
2019-05-25T07:58:18.405Z,46.12
2019-05-25T08:00:47.068Z,44.05
2019-05-25T08:03:16.787Z,44.96
2019-05-25T08:05:46.722Z,46.41
2019-05-25T08:08:16.257Z,44.41
2019-05-25T08:10:45.829Z,43.18
2019-05-25T08:13:15.373Z,43.80
2019-05-25T08:15:45.128Z,42.04
2019-05-25T08:18:14.696Z,42.37
2019-05-25T08:20:47.143Z,44.02
2019-05-25T08:23:15.807Z,40.78
2019-05-25T08:25:45.396Z,41.22
2019-05-25T08:28:29.810Z,41.50
2019-05-25T08:30:46.769Z,41.12
2019-05-25T08:33:16.711Z,42.47
2019-05-25T08:35:46.621Z,39.25
2019-05-25T08:38:16.330Z,38.31
2019-05-25T08:40:45.916Z,39.62
2019-05-25T08:43:15.446Z,37.96
2019-05-25T08:45:45.059Z,37.69
2019-05-25T08:48:14.669Z,35.51
2019-05-25T08:50:45.060Z,28.52
2019-05-25T08:53:14.660Z,25.66
2019-05-25T08:55:44.363Z,25.82
2019-05-25T08:58:13.981Z,20.54
2019-05-25T09:00:43.685Z,19.45
2019-05-25T09:03:13.425Z,19.33
2019-05-25T09:05:43.124Z,19.79
2019-05-25T09:08:12.767Z,17.48
2019-05-25T09:10:42.341Z,17.80
2019-05-25T09:13:12.263Z,18.06
2019-05-25T09:15:42.321Z,16.38
2019-05-25T09:18:12.767Z,14.38
2019-05-25T09:20:42.451Z,17.00
2019-05-25T09:23:12.187Z,17.49
2019-05-25T09:25:42.464Z,16.80
2019-05-25T09:28:12.083Z,14.87
2019-05-25T09:30:41.695Z,13.95
2019-05-25T09:33:11.718Z,15.26
2019-05-25T09:35:41.424Z,17.35
2019-05-25T09:38:11.338Z,15.82
2019-05-25T09:40:40.957Z,15.43
2019-05-25T09:43:11.240Z,14.85
2019-05-25T09:45:40.833Z,14.97
2019-05-25T09:48:10.411Z,13.54
2019-05-25T09:51:00.447Z,12.47
2019-05-25T09:53:30.425Z,10.94
2019-05-25T09:56:00.343Z,14.23
2019-05-25T09:58:30.587Z,13.16
2019-05-25T10:01:00.513Z,12.91
2019-05-25T10:03:30.803Z,12.33
2019-05-25T10:06:10.115Z,12.22
2019-05-25T10:08:32.591Z,14.29
2019-05-25T10:11:02.372Z,13.01
2019-05-25T10:13:32.522Z,14.76
2019-05-25T10:16:02.539Z,15.70
2019-05-25T10:18:32.333Z,16.18
2019-05-25T10:21:02.874Z,14.83
2019-05-25T10:23:32.714Z,17.37
2019-05-25T10:26:03.417Z,18.52
2019-05-25T10:28:33.225Z,18.57
2019-05-25T10:31:03.192Z,19.90
2019-05-25T10:33:34.235Z,24.79
2019-05-25T10:36:03.971Z,28.00
2019-05-25T10:38:35.844Z,24.75
2019-05-25T10:41:10.563Z,26.99
2019-05-25T10:43:42.507Z,28.91
2019-05-25T10:46:12.392Z,30.08
2019-05-25T10:48:42.238Z,33.40
2019-05-25T10:51:12.754Z,26.84
2019-05-25T10:53:42.422Z,24.32
2019-05-25T10:56:12.198Z,24.69
2019-05-25T10:58:42.041Z,17.19
2019-05-25T11:01:11.903Z,14.53
2019-05-25T11:03:41.728Z,12.24
2019-05-25T11:06:11.619Z,12.92
2019-05-25T11:08:41.266Z,18.04
2019-05-25T11:11:10.972Z,17.56
2019-05-25T11:13:40.731Z,19.47
2019-05-25T11:16:10.442Z,16.98
2019-05-25T11:18:40.174Z,14.09
2019-05-25T11:21:09.997Z,15.16
2019-05-25T11:23:39.725Z,15.10
2019-05-25T11:26:09.463Z,19.70
2019-05-25T11:28:39.394Z,23.46
2019-05-25T11:31:09.113Z,24.57
2019-05-25T11:33:38.806Z,23.73
2019-05-25T11:36:08.596Z,17.79
2019-05-25T11:38:38.295Z,15.69
2019-05-25T11:41:07.960Z,13.95
2019-05-25T11:43:37.760Z,12.61
2019-05-25T11:46:07.557Z,12.33
2019-05-25T11:48:37.252Z,13.07
2019-05-25T11:51:07.529Z,16.03
2019-05-25T11:53:37.498Z,12.45
2019-05-25T11:56:07.216Z,17.81
2019-05-25T11:58:47.022Z,19.45
2019-05-25T12:01:08.407Z,22.93
2019-05-25T12:03:38.116Z,16.76
2019-05-25T12:06:07.885Z,14.82
2019-05-25T12:08:37.486Z,15.08
2019-05-25T12:11:07.281Z,16.80
2019-05-25T12:13:37.259Z,17.06
2019-05-25T12:16:07.849Z,18.29
2019-05-25T12:18:37.594Z,14.70
2019-05-25T12:21:07.346Z,15.15
2019-05-25T12:23:37.351Z,12.65
2019-05-25T12:26:06.992Z,12.17
2019-05-25T12:28:36.678Z,13.76
2019-05-25T12:31:06.464Z,15.89
2019-05-25T12:33:36.274Z,13.63
2019-05-25T12:36:06.667Z,14.09
2019-05-25T12:38:43.754Z,19.50
2019-05-25T12:41:13.540Z,22.47
2019-05-25T12:43:43.263Z,21.29
2019-05-25T12:46:13.098Z,17.84
2019-05-25T12:48:42.957Z,12.92
2019-05-25T12:51:17.616Z,16.34
2019-05-25T12:53:45.986Z,21.42
2019-05-25T12:56:15.753Z,23.19
2019-05-25T12:58:45.335Z,24.43
2019-05-25T13:01:15.058Z,17.92
2019-05-25T13:03:44.741Z,14.36
2019-05-25T13:06:18.110Z,12.55
2019-05-25T13:08:46.507Z,11.39
2019-05-25T13:11:17.117Z,11.52
2019-05-25T13:13:47.035Z,13.81
2019-05-25T13:16:16.740Z,12.26
2019-05-25T13:18:46.750Z,11.10
2019-05-25T13:21:16.467Z,15.71
2019-05-25T13:23:46.273Z,18.65
2019-05-25T13:26:16.818Z,20.14
2019-05-25T13:28:46.548Z,21.65
2019-05-25T13:31:16.681Z,18.46
2019-05-25T13:33:46.437Z,16.43
2019-05-25T13:36:17.046Z,14.02
2019-05-25T13:38:47.108Z,12.97
2019-05-25T13:41:16.875Z,12.17
2019-05-25T13:43:49.920Z,13.07
2019-05-25T13:46:17.963Z,11.86
2019-05-25T13:48:47.747Z,11.88
2019-05-25T13:51:17.558Z,16.51
2019-05-25T13:53:47.292Z,15.40
2019-05-25T13:56:17.167Z,13.19
2019-05-25T13:58:47.357Z,15.02
2019-05-25T14:01:28.123Z,16.26
2019-05-25T14:03:48.794Z,15.14
2019-05-25T14:06:18.555Z,14.83
2019-05-25T14:08:48.497Z,15.29
2019-05-25T14:11:18.338Z,20.87
2019-05-25T14:13:48.144Z,24.03
2019-05-25T14:16:17.763Z,23.84
2019-05-25T14:18:47.593Z,22.42
2019-05-25T14:21:17.381Z,22.39
2019-05-25T14:23:47.073Z,20.41
2019-05-25T14:26:16.757Z,16.93
2019-05-25T14:28:46.909Z,20.50
2019-05-25T14:31:16.671Z,21.56
2019-05-25T14:33:46.566Z,25.08
2019-05-25T14:36:16.295Z,24.77
2019-05-25T14:38:45.852Z,26.04
2019-05-25T14:41:15.452Z,25.80
2019-05-25T14:43:45.139Z,26.56
2019-05-25T14:46:26.794Z,29.21
2019-05-25T14:48:46.530Z,27.66
2019-05-25T14:51:16.246Z,26.38
2019-05-25T14:53:45.895Z,25.32
2019-05-25T14:56:15.545Z,26.46
2019-05-25T14:58:45.630Z,26.86
2019-05-25T15:01:15.755Z,29.04
2019-05-25T15:03:45.412Z,28.52
2019-05-25T15:06:15.291Z,25.52
2019-05-25T15:08:45.047Z,25.00
2019-05-25T15:11:15.379Z,26.92
2019-05-25T15:13:45.018Z,28.11
2019-05-25T15:16:14.736Z,28.01
2019-05-25T15:18:44.838Z,27.46
2019-05-25T15:21:14.545Z,28.55
2019-05-25T15:23:44.112Z,29.41
2019-05-25T15:26:13.896Z,29.25
2019-05-25T15:28:43.727Z,30.93
2019-05-25T15:31:13.491Z,28.14
2019-05-25T15:33:43.286Z,29.71
2019-05-25T15:36:13.142Z,29.59
2019-05-25T15:38:42.914Z,30.18
2019-05-25T15:41:12.793Z,30.31
2019-05-25T15:43:42.443Z,30.10
2019-05-25T15:46:12.027Z,30.90
2019-05-25T15:48:41.866Z,30.17
2019-05-25T15:51:11.603Z,30.33
2019-05-25T15:53:41.287Z,30.78
2019-05-25T15:56:11.048Z,31.34
2019-05-25T15:58:40.670Z,32.44
2019-05-25T16:01:10.418Z,32.33
2019-05-25T16:03:40.239Z,32.23
2019-05-25T16:06:10.060Z,33.61
2019-05-25T16:08:40.148Z,33.24
2019-05-25T16:11:09.948Z,34.22
2019-05-25T16:13:39.601Z,33.67
2019-05-25T16:16:09.369Z,33.15
2019-05-25T16:18:39.107Z,33.59
2019-05-25T16:21:08.825Z,33.95
2019-05-25T16:23:38.641Z,34.71
2019-05-25T16:26:08.445Z,35.09
2019-05-25T16:28:38.086Z,36.48
2019-05-25T16:31:07.872Z,36.53
2019-05-25T16:33:37.655Z,35.84
2019-05-25T16:36:07.669Z,37.08
2019-05-25T16:38:37.478Z,35.67
2019-05-25T16:41:07.224Z,36.83
2019-05-25T16:43:37.027Z,37.12
2019-05-25T16:46:07.052Z,37.42
2019-05-25T16:48:36.863Z,36.44
2019-05-25T16:51:06.584Z,36.72
2019-05-25T16:53:36.282Z,36.91
2019-05-25T16:56:06.024Z,37.64
2019-05-25T16:58:35.652Z,39.62
2019-05-25T17:01:05.901Z,39.33
2019-05-25T17:03:36.075Z,38.74
2019-05-25T17:06:05.838Z,40.08
2019-05-25T17:08:36.431Z,38.70
2019-05-25T17:11:06.242Z,40.28
2019-05-25T17:13:35.943Z,40.50
2019-05-25T17:16:05.714Z,40.03
2019-05-25T17:18:35.376Z,40.30
2019-05-25T17:21:05.108Z,39.52
2019-05-25T17:23:34.738Z,39.73
2019-05-25T17:26:04.771Z,39.95
2019-05-25T17:28:34.634Z,40.05
2019-05-25T17:31:04.353Z,39.17
2019-05-25T17:33:45.226Z,39.58
2019-05-25T17:36:05.872Z,39.26
2019-05-25T17:38:35.561Z,39.87
2019-05-25T17:41:06.891Z,40.06
2019-05-25T17:43:36.600Z,40.25
2019-05-25T17:46:06.321Z,39.52
2019-05-25T17:48:36.430Z,41.24
2019-05-25T17:51:06.134Z,40.25
2019-05-25T17:53:35.784Z,40.98
2019-05-25T17:56:05.623Z,41.33
2019-05-25T17:58:35.246Z,42.28
2019-05-25T18:01:05.247Z,42.18
2019-05-25T18:03:35.439Z,42.25
2019-05-25T18:06:05.304Z,42.94
2019-05-25T18:08:34.945Z,42.83
2019-05-25T18:11:05.155Z,42.85
2019-05-25T18:13:34.927Z,42.89
2019-05-25T18:16:04.642Z,43.28
2019-05-25T18:18:34.941Z,44.60
2019-05-25T18:21:05.656Z,45.97
2019-05-25T18:23:35.555Z,46.43
2019-05-25T18:26:05.331Z,46.40
2019-05-25T18:28:35.136Z,48.09
2019-05-25T18:31:05.928Z,48.38
2019-05-25T18:33:36.996Z,50.66
2019-05-25T18:36:06.840Z,50.99
2019-05-25T18:38:36.980Z,51.48
2019-05-25T18:41:06.860Z,51.22
2019-05-25T18:43:36.895Z,51.46
2019-05-25T18:46:07.152Z,52.73
2019-05-25T18:48:37.048Z,53.06
2019-05-25T18:51:08.616Z,52.79
2019-05-25T18:53:38.889Z,53.39
2019-05-25T18:56:08.974Z,54.03
2019-05-25T18:58:38.632Z,54.15
2019-05-25T19:01:08.508Z,54.69
2019-05-25T19:03:38.224Z,54.17
2019-05-25T19:06:07.959Z,55.05
2019-05-25T19:08:37.783Z,54.38
2019-05-25T19:11:07.663Z,54.41
2019-05-25T19:13:37.381Z,55.42
2019-05-25T19:16:07.575Z,54.72
2019-05-25T19:18:37.755Z,55.64
2019-05-25T19:21:07.762Z,56.51
2019-05-25T19:23:37.957Z,58.29
2019-05-25T19:26:07.844Z,58.11
2019-05-25T19:28:37.769Z,57.45
2019-05-25T19:31:07.844Z,59.11
2019-05-25T19:33:37.899Z,59.62
2019-05-25T19:36:07.967Z,59.22
2019-05-25T19:38:37.861Z,59.06
2019-05-25T19:41:08.026Z,60.28
2019-05-25T19:43:38.033Z,61.02
2019-05-25T19:46:08.215Z,61.54
2019-05-25T19:48:40.096Z,61.97
2019-05-25T19:51:10.767Z,61.50
2019-05-25T19:53:40.839Z,61.95
2019-05-25T19:56:11.225Z,60.40
2019-05-25T19:58:42.176Z,61.43
2019-05-25T20:01:12.508Z,61.35
2019-05-25T20:03:42.568Z,60.70
2019-05-25T20:06:12.409Z,61.00
2019-05-25T20:08:42.362Z,62.69
2019-05-25T20:11:12.442Z,63.13
2019-05-25T20:13:42.298Z,63.38
2019-05-25T20:16:13.276Z,63.55
2019-05-25T20:18:43.213Z,63.02
2019-05-25T20:21:13.220Z,63.06
2019-05-25T20:23:43.212Z,62.75
2019-05-25T20:26:13.148Z,62.12
2019-05-25T20:28:42.863Z,61.94
2019-05-25T20:31:12.891Z,63.68
2019-05-25T20:33:42.890Z,65.44
2019-05-25T20:36:13.066Z,66.11
2019-05-25T20:38:42.935Z,66.01
2019-05-25T20:41:12.565Z,65.73
2019-05-25T20:43:42.203Z,64.19
2019-05-25T20:46:12.228Z,66.18
2019-05-25T20:48:41.886Z,67.66
2019-05-25T20:51:11.528Z,68.44
2019-05-25T20:53:41.483Z,66.91
2019-05-25T20:56:11.354Z,66.89
2019-05-25T20:58:40.999Z,68.68
2019-05-25T21:01:10.790Z,67.42
2019-05-25T21:03:40.494Z,67.57
2019-05-25T21:06:11.073Z,68.96
2019-05-25T21:08:40.958Z,67.91
2019-05-25T21:11:10.686Z,68.03
2019-05-25T21:13:40.385Z,68.15
2019-05-25T21:16:10.085Z,66.73
2019-05-25T21:18:39.813Z,67.93
2019-05-25T21:21:09.491Z,69.59
2019-05-25T21:23:39.263Z,70.17
2019-05-25T21:26:08.919Z,67.95
2019-05-25T21:28:38.628Z,70.34
2019-05-25T21:31:08.365Z,70.19
2019-05-25T21:33:37.997Z,69.67
2019-05-25T21:36:09.347Z,69.82
2019-05-25T21:38:38.948Z,69.04
2019-05-25T21:41:08.513Z,71.11
2019-05-25T21:43:38.198Z,70.71
2019-05-25T21:46:07.944Z,69.66
2019-05-25T21:48:37.759Z,68.75
2019-05-25T21:51:07.447Z,70.11
2019-05-25T21:53:37.199Z,69.48
2019-05-25T21:56:06.932Z,70.01
2019-05-25T21:58:36.751Z,71.54
2019-05-25T22:01:06.925Z,71.17
2019-05-25T22:03:36.567Z,69.24
2019-05-25T22:06:06.289Z,68.18
2019-05-25T22:08:35.884Z,67.12
2019-05-25T22:11:05.765Z,66.72
2019-05-25T22:13:35.420Z,66.92
2019-05-25T22:16:05.168Z,69.09
2019-05-25T22:18:34.884Z,68.57
2019-05-25T22:21:04.535Z,70.92
2019-05-25T22:23:34.216Z,71.85
2019-05-25T22:26:03.946Z,71.39
2019-05-25T22:28:44.217Z,71.91
2019-05-25T22:31:05.117Z,71.93
2019-05-25T22:33:36.239Z,70.94
2019-05-25T22:36:05.940Z,70.27
2019-05-25T22:38:35.696Z,72.30
2019-05-25T22:41:05.608Z,72.65
2019-05-25T22:43:35.231Z,74.58
2019-05-25T22:46:04.908Z,72.25
2019-05-25T22:48:34.501Z,70.16
2019-05-25T22:51:04.204Z,71.41
2019-05-25T22:53:33.849Z,71.36
2019-05-25T22:56:03.492Z,72.88
2019-05-25T22:58:33.703Z,75.25
2019-05-25T23:01:03.491Z,75.77
2019-05-25T23:03:33.203Z,75.56
2019-05-25T23:06:03.087Z,74.03
2019-05-25T23:08:32.869Z,74.57
2019-05-25T23:11:02.676Z,73.79
2019-05-25T23:13:32.525Z,72.43
2019-05-25T23:16:02.204Z,73.69
2019-05-25T23:18:31.972Z,72.86
2019-05-25T23:21:01.573Z,72.44
2019-05-25T23:23:31.193Z,73.33
2019-05-25T23:26:00.830Z,72.99
2019-05-25T23:28:30.381Z,71.70
2019-05-25T23:31:00.084Z,70.42
2019-05-25T23:33:29.719Z,71.32
2019-05-25T23:35:59.385Z,72.92
2019-05-25T23:38:29.448Z,72.88
2019-05-25T23:41:00.053Z,74.69
2019-05-25T23:43:29.696Z,74.49
2019-05-25T23:45:59.473Z,74.01
2019-05-25T23:48:29.114Z,75.16
2019-05-25T23:50:58.771Z,74.60
2019-05-25T23:53:28.374Z,74.54
2019-05-25T23:55:58.061Z,74.14
2019-05-25T23:58:27.981Z,74.17
